Time;durP1;ratioP1;P1;durP2;ratioP2;P2;SDS_P1;SDS_P2;PMS_P1;PMS_P2;Temp;Humidity;BMP_temperature;BMP_pressure;BME280_temperature;BME280_humidity;BME280_pressure;Samples;Min_cycle;Max_cycle;Signal;HPM_P1;HPM_P2
2022/04/26 03:36:43;;;;;;;3.83;3.17;;;18.60;45.70;;;;;;5072282;28;20541;-88
2022/04/26 03:39:10;;;;;;;3.88;3.17;;;18.60;45.70;;;;;;5040897;28;20182;-88
2022/04/26 03:41:37;;;;;;;4.85;3.20;;;18.60;45.70;;;;;;5057187;28;20265;-86
2022/04/26 03:44:04;;;;;;;3.47;2.90;;;18.60;45.70;;;;;;5058736;28;20142;-86
2022/04/26 03:46:32;;;;;;;4.95;3.17;;;18.60;45.70;;;;;;5042061;28;20630;-86
2022/04/26 03:49:03;;;;;;;3.53;3.00;;;18.60;45.70;;;;;;5041894;28;20209;-88
2022/04/26 03:51:29;;;;;;;4.60;3.40;;;18.60;45.80;;;;;;5041422;28;20226;-87
2022/04/26 03:54:06;;;;;;;3.90;2.97;;;18.60;45.80;;;;;;5058836;28;20248;-85
2022/04/26 03:56:36;;;;;;;4.15;3.08;;;18.60;45.70;;;;;;5076312;28;20703;-86
2022/04/26 03:59:06;;;;;;;4.38;3.00;;;18.50;45.60;;;;;;5060103;28;20269;-86
2022/04/26 04:01:34;;;;;;;4.18;3.10;;;18.60;45.50;;;;;;5077195;28;20182;-85
2022/04/26 04:04:00;;;;;;;3.85;2.90;;;18.60;45.70;;;;;;5077355;28;20231;-88
2022/04/26 04:06:28;;;;;;;3.17;2.80;;;18.60;45.80;;;;;;5046111;28;20261;-87
2022/04/26 04:08:54;;;;;;;4.57;2.88;;;18.50;45.80;;;;;;5045556;28;20178;-86
2022/04/26 04:11:20;;;;;;;4.75;3.00;;;18.60;45.80;;;;;;5040791;28;20252;-86
2022/04/26 04:13:47;;;;;;;4.75;3.30;;;18.60;45.70;;;;;;5026706;28;20171;-85
2022/04/26 04:16:13;;;;;;;4.50;2.90;;;18.60;45.80;;;;;;5026291;28;20226;-87
2022/04/26 04:21:23;;;;;;;5.38;3.30;;;18.60;45.70;;;;;;5042671;28;20159;-85
2022/04/26 04:23:50;;;;;;;3.63;3.00;;;18.60;45.70;;;;;;5042273;28;20155;-85
2022/04/26 04:26:19;;;;;;;4.65;3.28;;;18.60;45.80;;;;;;5041794;28;20163;-85
2022/04/26 04:28:47;;;;;;;3.17;2.88;;;18.60;45.80;;;;;;5041560;28;20154;-87
2022/04/26 04:31:12;;;;;;;4.15;3.13;;;18.60;45.70;;;;;;5041043;28;20175;-87
2022/04/26 04:33:43;;;;;;;4.15;2.95;;;18.60;45.50;;;;;;5041478;28;20163;-87
2022/04/26 04:36:11;;;;;;;3.90;2.83;;;18.70;45.50;;;;;;5041867;28;20214;-85
2022/04/26 04:38:41;;;;;;;4.85;2.90;;;18.70;45.50;;;;;;5041327;28;20182;-88
2022/04/26 04:41:15;;;;;;;5.05;2.88;;;18.70;45.40;;;;;;5023435;28;20186;-86
2022/04/26 04:43:40;;;;;;;4.82;3.10;;;18.70;45.30;;;;;;5052967;28;20232;-88
2022/04/26 04:46:06;;;;;;;3.53;2.95;;;18.70;45.40;;;;;;5042976;28;20162;-86
2022/04/26 04:48:34;;;;;;;3.97;3.10;;;18.60;45.50;;;;;;5026486;28;20257;-86
2022/04/26 04:50:59;;;;;;;3.47;2.90;;;18.70;45.10;;;;;;5041530;28;20178;-86
2022/04/26 04:53:27;;;;;;;4.70;2.83;;;18.80;45.00;;;;;;5042128;28;20200;-85
2022/04/26 04:55:54;;;;;;;3.42;2.78;;;18.80;44.80;;;;;;5044905;28;20213;-87
2022/04/26 04:58:21;;;;;;;3.30;2.63;;;18.90;44.60;;;;;;5041668;28;20154;-87
2022/04/26 05:00:47;;;;;;;3.67;2.90;;;18.80;44.80;;;;;;5043403;28;20222;-86
2022/04/26 05:03:16;;;;;;;3.83;2.92;;;18.80;44.60;;;;;;5025955;28;20208;-86
2022/04/26 05:05:42;;;;;;;4.45;2.95;;;18.80;44.50;;;;;;5026209;28;20177;-87
2022/04/26 05:08:10;;;;;;;3.47;2.70;;;18.90;44.50;;;;;;5041839;28;20159;-88
2022/04/26 05:10:42;;;;;;;3.28;2.67;;;18.90;44.30;;;;;;5026281;28;20656;-85
2022/04/26 05:13:09;;;;;;;4.68;3.05;;;19.00;44.60;;;;;;5042189;28;20174;-86
2022/04/26 05:15:44;;;;;;;3.75;3.03;;;18.80;44.80;;;;;;5041558;28;20158;-86
2022/04/26 05:18:17;;;;;;;3.55;2.60;;;18.90;44.20;;;;;;5041516;28;20182;-88
2022/04/26 05:20:49;;;;;;;3.83;3.00;;;18.90;44.90;;;;;;5040277;28;20543;-86
2022/04/26 05:26:06;;;;;;;4.07;3.05;;;19.00;44.20;;;;;;5044015;28;20232;-87
2022/04/26 05:28:36;;;;;;;3.08;2.60;;;18.90;44.70;;;;;;5041218;28;20186;-86
2022/04/26 05:31:07;;;;;;;4.25;2.88;;;18.90;44.70;;;;;;5058353;28;20240;-86
2022/04/26 05:33:41;;;;;;;4.05;2.55;;;18.90;44.60;;;;;;5043128;28;20185;-87
2022/04/26 05:36:08;;;;;;;3.22;2.65;;;19.00;44.40;;;;;;5041848;28;20216;-86
2022/04/26 05:38:39;;;;;;;2.78;2.42;;;18.90;44.40;;;;;;5024795;28;20170;-90
2022/04/26 05:41:07;;;;;;;3.15;2.83;;;19.00;44.20;;;;;;5054041;28;20221;-86
2022/04/26 05:43:34;;;;;;;3.70;2.80;;;19.00;44.40;;;;;;5020825;28;20185;-87
2022/04/26 05:46:02;;;;;;;4.57;2.47;;;19.00;44.40;;;;;;5037392;28;20185;-86
2022/04/26 05:48:29;;;;;;;3.88;2.70;;;19.00;44.10;;;;;;5037501;28;20219;-88
2022/04/26 05:50:55;;;;;;;4.20;2.78;;;19.00;44.40;;;;;;5036064;28;20182;-88
2022/04/26 05:53:21;;;;;;;3.90;2.65;;;19.00;44.10;;;;;;5020689;28;20655;-86
2022/04/26 05:55:47;;;;;;;5.30;2.90;;;18.90;44.30;;;;;;5053794;28;20162;-88
2022/04/26 05:58:20;;;;;;;3.10;2.63;;;18.90;44.20;;;;;;5037449;28;20154;-89
2022/04/26 06:00:50;;;;;;;3.55;2.65;;;19.00;44.20;;;;;;5036344;28;20259;-88
2022/04/26 06:03:16;;;;;;;3.00;2.67;;;18.90;44.40;;;;;;5035725;28;20311;-89
2022/04/26 06:05:45;;;;;;;3.75;2.70;;;18.90;44.30;;;;;;5053375;28;20600;-88
2022/04/26 06:08:10;;;;;;;2.70;2.50;;;18.90;44.30;;;;;;5052769;28;20181;-88
2022/04/26 06:10:38;;;;;;;3.38;2.50;;;18.90;44.20;;;;;;5052030;28;20150;-88
2022/04/26 06:13:03;;;;;;;3.47;2.50;;;18.90;44.50;;;;;;5035460;28;20544;-89
2022/04/26 06:15:30;;;;;;;3.33;2.58;;;18.90;44.50;;;;;;5052277;28;20158;-89
2022/04/26 06:17:56;;;;;;;3.30;2.65;;;18.90;44.60;;;;;;5052134;28;20189;-88
2022/04/26 06:20:24;;;;;;;3.50;2.65;;;18.90;44.40;;;;;;5052720;28;20162;-87
2022/04/26 06:22:50;;;;;;;3.75;2.70;;;18.90;44.30;;;;;;5052313;28;20153;-89
2022/04/26 06:25:16;;;;;;;4.22;2.55;;;18.90;44.80;;;;;;5051050;28;20154;-89
2022/04/26 06:27:42;;;;;;;3.42;2.42;;;19.00;44.90;;;;;;5051072;28;20196;-89
2022/04/26 06:30:08;;;;;;;3.83;2.90;;;18.90;44.70;;;;;;5051257;28;20162;-89
2022/04/26 06:32:35;;;;;;;3.03;2.60;;;18.90;44.90;;;;;;5035385;28;20188;-88
2022/04/26 06:35:05;;;;;;;4.15;2.50;;;18.90;45.00;;;;;;5035392;28;20188;-87
2022/04/26 06:37:36;;;;;;;3.53;2.30;;;18.90;44.90;;;;;;5034447;28;20301;-87
2022/04/26 06:40:06;;;;;;;4.07;2.67;;;19.00;44.50;;;;;;5034633;28;20611;-87
2022/04/26 06:42:37;;;;;;;2.90;2.45;;;18.90;44.80;;;;;;5050858;28;20174;-87
2022/04/26 06:45:06;;;;;;;3.60;2.50;;;18.90;44.60;;;;;;5034579;28;20645;-88
2022/04/26 06:47:35;;;;;;;2.53;2.28;;;18.90;44.80;;;;;;5033847;28;20186;-88
2022/04/26 06:50:04;;;;;;;3.28;2.60;;;18.90;44.50;;;;;;5068028;28;20193;-87
2022/04/26 06:52:33;;;;;;;3.63;2.60;;;18.90;44.40;;;;;;5051460;28;20688;-87
2022/04/26 06:55:03;;;;;;;3.38;2.58;;;18.90;44.60;;;;;;5051624;28;20185;-87
2022/04/26 06:57:36;;;;;;;3.35;2.50;;;18.90;44.50;;;;;;5037752;28;20216;-88
2022/04/26 07:00:05;;;;;;;3.22;2.50;;;18.80;44.40;;;;;;5072191;28;20548;-87
2022/04/26 07:02:35;;;;;;;2.90;2.45;;;18.90;44.60;;;;;;5036479;28;20213;-87
2022/04/26 07:05:21;;;;;;;2.50;2.30;;;18.90;44.60;;;;;;5073330;28;20233;-88
2022/04/26 07:07:51;;;;;;;2.50;2.30;;;18.90;44.40;;;;;;5042439;28;20707;-88
2022/04/26 07:10:19;;;;;;;3.78;2.40;;;18.90;44.60;;;;;;5056860;28;20190;-88
2022/04/26 07:12:46;;;;;;;4.03;2.30;;;18.90;44.50;;;;;;5056821;28;20182;-88
2022/04/26 07:15:17;;;;;;;3.08;2.35;;;18.90;44.40;;;;;;5056510;28;20200;-87
2022/04/26 07:17:48;;;;;;;3.58;2.67;;;19.00;44.20;;;;;;5056142;28;20301;-88
2022/04/26 07:20:15;;;;;;;2.90;2.60;;;19.10;44.30;;;;;;5038846;28;20649;-87
2022/04/26 07:22:45;;;;;;;3.55;2.40;;;19.00;44.20;;;;;;5072133;28;20240;-88
2022/04/26 07:25:13;;;;;;;3.33;2.65;;;19.00;43.90;;;;;;5055914;28;20186;-88
2022/04/26 07:27:41;;;;;;;2.60;2.40;;;19.00;43.90;;;;;;5071865;28;20652;-88
2022/04/26 07:30:09;;;;;;;2.92;2.30;;;19.10;44.10;;;;;;5071583;28;20245;-88
2022/04/26 07:35:18;;;;;;;3.28;2.30;;;19.10;43.80;;;;;;5070638;28;20675;-88
2022/04/26 07:37:45;;;;;;;3.20;2.40;;;19.30;43.70;;;;;;5055200;28;20244;-88
2022/04/26 07:40:12;;;;;;;2.20;2.00;;;19.20;43.40;;;;;;5038808;28;20272;-88
2022/04/26 07:42:40;;;;;;;3.50;1.98;;;19.30;42.90;;;;;;5055249;28;20181;-87
2022/04/26 07:45:07;;;;;;;3.40;2.22;;;19.30;43.00;;;;;;5055079;28;20224;-88
2022/04/26 07:47:34;;;;;;;2.65;2.20;;;19.40;43.00;;;;;;5072595;28;20189;-88
2022/04/26 07:50:02;;;;;;;2.40;2.20;;;19.40;42.80;;;;;;5054861;28;20380;-87
2022/04/26 07:52:29;;;;;;;5.35;2.53;;;19.50;42.40;;;;;;5038395;28;20304;-88
2022/04/26 07:54:59;;;;;;;3.78;2.30;;;19.50;42.90;;;;;;5071411;28;20276;-88
2022/04/26 07:57:25;;;;;;;3.63;2.67;;;19.40;43.30;;;;;;5055028;28;20213;-88
2022/04/26 07:59:55;;;;;;;4.93;2.58;;;19.40;43.50;;;;;;5054382;28;20212;-88
2022/04/26 08:02:25;;;;;;;2.95;2.10;;;19.40;43.10;;;;;;5038142;28;20221;-87
2022/04/26 08:04:54;;;;;;;4.15;2.03;;;19.30;42.80;;;;;;5038832;28;20663;-88
2022/04/26 08:07:21;;;;;;;3.47;2.33;;;19.50;42.50;;;;;;5039199;28;20185;-88
2022/04/26 08:09:47;;;;;;;6.63;2.40;;;19.50;42.20;;;;;;5056487;28;20158;-88
2022/04/26 08:12:13;;;;;;;3.58;2.15;;;19.50;42.80;;;;;;5055553;28;20518;-88
2022/04/26 08:14:39;;;;;;;2.60;2.13;;;19.50;42.60;;;;;;5054490;28;20597;-88
2022/04/26 08:17:06;;;;;;;2.60;2.10;;;19.60;42.20;;;;;;5056350;28;20276;-88
2022/04/26 08:19:32;;;;;;;3.30;2.08;;;19.60;42.10;;;;;;5040467;28;20162;-88
2022/04/26 08:21:58;;;;;;;3.35;2.28;;;19.70;42.10;;;;;;5055177;28;20225;-88
2022/04/26 08:29:44;;;;;;;3.85;2.03;;;19.70;42.10;;;;;;5055617;28;20530;-88
2022/04/26 08:32:10;;;;;;;2.42;2.15;;;19.70;42.30;;;;;;5054701;28;20166;-87
2022/04/26 08:34:40;;;;;;;2.72;1.92;;;19.60;42.30;;;;;;5054792;28;20162;-88
2022/04/26 08:37:06;;;;;;;2.55;2.10;;;19.50;42.30;;;;;;5037150;28;20292;-88
2022/04/26 08:39:32;;;;;;;3.15;2.10;;;19.50;42.30;;;;;;5054315;28;20679;-88
2022/04/26 08:42:02;;;;;;;3.15;2.33;;;19.60;42.50;;;;;;5054313;28;20617;-88
2022/04/26 08:44:29;;;;;;;2.72;1.90;;;19.60;42.20;;;;;;5053710;28;20255;-87
2022/04/26 08:52:15;;;;;;;2.58;2.20;;;19.60;42.30;;;;;;5053431;28;20630;-87
2022/04/26 08:54:41;;;;;;;2.97;2.00;;;19.50;42.60;;;;;;5052547;28;20505;-87
2022/04/26 08:57:13;;;;;;;3.05;2.30;;;19.50;42.50;;;;;;5055599;28;20196;-89
2022/04/26 08:59:49;;;;;;;3.08;2.35;;;19.50;42.50;;;;;;5070240;28;20185;-87
2022/04/26 09:02:19;;;;;;;2.53;1.80;;;19.60;42.40;;;;;;5037238;28;20162;-87
2022/04/26 09:04:48;;;;;;;3.78;2.22;;;19.60;42.30;;;;;;5054613;28;20166;-87
2022/04/26 09:07:29;;;;;;;3.13;2.30;;;19.50;42.40;;;;;;5054139;28;20684;-87
2022/04/26 09:10:04;;;;;;;2.97;2.10;;;19.50;42.30;;;;;;5054436;28;20221;-87
2022/04/26 09:12:30;;;;;;;2.63;2.20;;;19.50;42.40;;;;;;5055185;28;20162;-87
2022/04/26 09:14:56;;;;;;;3.40;2.40;;;19.50;42.50;;;;;;5053701;28;20158;-88
2022/04/26 09:17:22;;;;;;;2.80;1.80;;;19.60;42.30;;;;;;5054976;28;20257;-87
2022/04/26 09:19:52;;;;;;;2.88;2.00;;;19.50;42.50;;;;;;5055129;28;20185;-87
2022/04/26 09:22:20;;;;;;;4.28;2.30;;;19.50;42.50;;;;;;5053663;28;20154;-87
2022/04/26 09:25:03;;;;;;;2.55;2.10;;;19.50;41.90;;;;;;5054385;28;20158;-87
2022/04/26 09:27:29;;;;;;;2.35;1.92;;;19.60;42.60;;;;;;5053946;28;20158;-87
2022/04/26 09:29:59;;;;;;;2.33;2.05;;;19.50;42.50;;;;;;5053683;28;20158;-88
2022/04/26 09:32:25;;;;;;;2.58;1.95;;;19.50;42.20;;;;;;5052920;28;20224;-88
2022/04/26 09:34:51;;;;;;;2.30;2.08;;;19.50;42.30;;;;;;5061108;28;20181;-88
2022/04/26 09:37:17;;;;;;;2.55;2.05;;;19.50;42.10;;;;;;5053617;28;20178;-88
2022/04/26 09:40:00;;;;;;;2.33;2.13;;;19.50;41.50;;;;;;5053160;28;20158;-87
2022/04/26 09:42:33;;;;;;;3.17;2.00;;;19.50;42.30;;;;;;5053265;28;20173;-87
2022/04/26 09:45:08;;;;;;;3.35;2.00;;;19.50;42.20;;;;;;5052318;28;20189;-88
2022/04/26 09:47:37;;;;;;;2.08;1.88;;;19.50;41.80;;;;;;5036428;28;20243;-88
2022/04/26 09:50:06;;;;;;;5.00;2.58;;;19.50;42.00;;;;;;5052769;28;20193;-88
2022/04/26 09:52:32;;;;;;;2.30;1.83;;;19.50;42.00;;;;;;5052402;28;20267;-88
2022/04/26 09:55:03;;;;;;;2.03;1.75;;;19.50;42.50;;;;;;5054169;28;20162;-88
2022/04/26 09:57:31;;;;;;;2.72;2.10;;;19.40;42.40;;;;;;5052837;28;20213;-87
2022/04/26 09:59:58;;;;;;;2.38;2.00;;;19.50;42.60;;;;;;5052839;28;20150;-88
2022/04/26 10:02:26;;;;;;;2.08;1.88;;;19.50;42.30;;;;;;5036913;28;20537;-88
2022/04/26 10:04:58;;;;;;;2.05;1.58;;;19.50;41.90;;;;;;5054082;28;20154;-87
2022/04/26 10:07:32;;;;;;;2.40;1.85;;;19.50;42.60;;;;;;5053475;28;20197;-88
2022/04/26 10:09:58;;;;;;;3.00;2.25;;;19.50;42.10;;;;;;5053469;28;20601;-87
2022/04/26 10:12:25;;;;;;;2.13;1.90;;;19.50;42.40;;;;;;5053602;28;20629;-87
2022/04/26 10:14:53;;;;;;;2.30;2.00;;;19.50;42.40;;;;;;5036654;28;20269;-88
2022/04/26 10:17:19;;;;;;;2.53;2.00;;;19.40;42.20;;;;;;5053170;28;20190;-87
2022/04/26 10:19:45;;;;;;;1.95;1.70;;;19.40;42.30;;;;;;5036694;28;20542;-88
2022/04/26 10:22:14;;;;;;;3.67;1.92;;;19.50;41.90;;;;;;5053842;28;20229;-88
2022/04/26 10:24:41;;;;;;;3.10;2.15;;;19.50;42.20;;;;;;5053475;28;20146;-88
2022/04/26 10:27:20;;;;;;;2.30;1.92;;;19.50;42.90;;;;;;5051877;28;20172;-88
2022/04/26 10:29:47;;;;;;;2.45;2.03;;;19.40;42.50;;;;;;5052592;28;20157;-88
2022/04/26 10:32:31;;;;;;;3.97;2.13;;;19.40;42.80;;;;;;5053106;28;20636;-87
2022/04/26 10:35:30;;;;;;;2.83;1.88;;;19.40;42.90;;;;;;5052789;28;20180;-88
2022/04/26 10:38:12;;;;;;;2.20;1.90;;;19.40;41.70;;;;;;5069192;28;20186;-87
2022/04/26 10:41:06;;;;;;;2.60;2.17;;;19.50;42.20;;;;;;5056381;28;20210;-88
2022/04/26 10:43:31;;;;;;;3.88;1.85;;;19.50;42.20;;;;;;5056131;28;20525;-88
2022/04/26 10:46:10;;;;;;;2.10;1.90;;;19.40;42.90;;;;;;5039586;28;20165;-87
2022/04/26 10:48:36;;;;;;;3.40;1.80;;;19.40;42.60;;;;;;5056575;28;20157;-88
2022/04/26 10:51:34;;;;;;;2.30;1.98;;;19.40;42.20;;;;;;5055793;28;20272;-88
2022/04/26 10:54:02;;;;;;;2.15;1.80;;;19.40;42.30;;;;;;5056501;28;20166;-87
2022/04/26 10:56:29;;;;;;;1.85;1.60;;;19.50;41.30;;;;;;5057800;28;20272;-88
2022/04/26 10:58:54;;;;;;;2.88;1.83;;;19.50;41.20;;;;;;5056314;28;20609;-88
2022/04/26 11:01:28;;;;;;;2.10;1.70;;;19.50;40.60;;;;;;5040594;28;20188;-88
2022/04/26 11:03:55;;;;;;;2.03;1.75;;;19.50;40.80;;;;;;5072927;28;20182;-89
2022/04/26 11:06:38;;;;;;;2.00;1.70;;;19.50;40.80;;;;;;5057199;28;20660;-88
2022/04/26 11:09:14;;;;;;;2.13;1.92;;;19.50;41.20;;;;;;5057184;28;20160;-88
2022/04/26 11:11:55;;;;;;;2.15;1.88;;;19.50;41.50;;;;;;5073505;28;20185;-88
2022/04/26 11:14:21;;;;;;;2.22;1.77;;;19.50;41.10;;;;;;5057379;28;20158;-88
2022/04/26 11:16:59;;;;;;;2.20;1.90;;;19.50;40.50;;;;;;5056837;28;20186;-89
2022/04/26 11:19:28;;;;;;;2.10;1.90;;;19.50;41.70;;;;;;5039645;28;20252;-88
2022/04/26 11:21:54;;;;;;;1.95;1.75;;;19.50;41.00;;;;;;5056128;28;20147;-88
2022/04/26 11:29:54;;;;;;;1.80;1.70;;;19.50;41.80;;;;;;5056701;28;20233;-87
2022/04/26 11:32:42;;;;;;;1.90;1.50;;;19.50;41.90;;;;;;5056280;28;20584;-89
2022/04/26 11:35:09;;;;;;;2.53;1.70;;;19.50;41.60;;;;;;5055090;28;20215;-88
2022/04/26 11:37:49;;;;;;;3.05;1.88;;;19.50;41.20;;;;;;5055129;28;20182;-88
2022/04/26 11:40:29;;;;;;;2.50;1.85;;;19.50;41.60;;;;;;5039663;28;20513;-88
2022/04/26 11:43:05;;;;;;;2.00;1.80;;;19.40;41.90;;;;;;5055182;28;20172;-88
2022/04/26 11:45:32;;;;;;;2.08;1.75;;;19.40;41.90;;;;;;5039006;28;20239;-88
2022/04/26 11:47:59;;;;;;;1.75;1.63;;;19.50;42.20;;;;;;5055092;28;20188;-88
2022/04/26 11:50:27;;;;;;;1.90;1.60;;;19.40;42.00;;;;;;5037976;28;20668;-88
2022/04/26 11:52:58;;;;;;;3.25;1.80;;;19.50;41.20;;;;;;5054612;28;20274;-87
2022/04/26 11:55:34;;;;;;;3.90;1.75;;;19.50;41.80;;;;;;5054904;28;20171;-89
2022/04/26 11:58:16;;;;;;;2.13;1.70;;;19.40;41.20;;;;;;5070300;28;20220;-88
2022/04/26 12:01:02;;;;;;;2.83;1.88;;;19.50;41.60;;;;;;5054890;28;20150;-88
2022/04/26 12:03:40;;;;;;;2.10;1.90;;;19.40;41.60;;;;;;5038946;28;20261;-88
2022/04/26 12:06:08;;;;;;;2.20;1.90;;;19.40;41.90;;;;;;5056552;28;20253;-88
2022/04/26 12:08:36;;;;;;;2.28;1.70;;;19.50;41.50;;;;;;5070019;28;20165;-88
2022/04/26 12:11:22;;;;;;;3.70;1.88;;;19.50;41.40;;;;;;5042876;28;20240;-87
2022/04/26 12:14:11;;;;;;;2.00;1.70;;;19.50;41.00;;;;;;5057272;28;20541;-88
2022/04/26 12:16:44;;;;;;;2.60;1.77;;;19.50;41.60;;;;;;5057927;28;20193;-88
2022/04/26 12:19:11;;;;;;;2.33;1.70;;;19.40;41.70;;;;;;5041454;28;20235;-88
2022/04/26 12:21:47;;;;;;;2.45;1.60;;;19.50;41.80;;;;;;5059519;28;20721;-88
2022/04/26 12:24:17;;;;;;;2.45;1.77;;;19.40;41.50;;;;;;5043252;28;20219;-88
2022/04/26 12:26:51;;;;;;;2.08;1.60;;;19.50;41.80;;;;;;5025866;28;20649;-89
2022/04/26 12:29:16;;;;;;;2.30;1.73;;;19.50;41.30;;;;;;5017930;28;20178;-88
2022/04/26 12:31:47;;;;;;;1.70;1.60;;;19.40;42.30;;;;;;5036192;28;20159;-89
2022/04/26 12:34:16;;;;;;;2.40;1.80;;;19.50;41.90;;;;;;5038883;28;20166;-87
2022/04/26 12:36:53;;;;;;;2.35;1.60;;;19.50;41.20;;;;;;5058505;28;20185;-88
2022/04/26 12:39:20;;;;;;;2.42;1.90;;;19.50;41.20;;;;;;5043165;28;20161;-88
2022/04/26 12:41:48;;;;;;;4.10;2.00;;;19.40;41.60;;;;;;5060119;28;20169;-87
2022/04/26 12:44:13;;;;;;;2.22;1.90;;;19.50;41.90;;;;;;5035847;28;20256;-88
2022/04/26 12:50:28;;;;;;;1.65;1.55;;;19.40;41.90;;;;;;5064849;28;20177;-88
2022/04/26 12:52:39;;;;;;;2.88;1.60;;;19.50;41.10;;;;;;5058861;28;20221;-87
2022/04/26 12:55:05;;;;;;;2.47;1.70;;;19.50;41.50;;;;;;5052954;28;20552;-89
2022/04/26 12:57:31;;;;;;;2.78;1.83;;;19.50;41.20;;;;;;5055503;28;20364;-88
2022/04/26 12:59:56;;;;;;;2.00;1.70;;;19.50;41.60;;;;;;5054522;28;20158;-88
2022/04/26 13:02:22;;;;;;;2.03;1.83;;;19.50;41.60;;;;;;5053715;28;20162;-88
2022/04/26 13:04:48;;;;;;;1.83;1.55;;;19.50;42.10;;;;;;5059011;28;20161;-87
2022/04/26 13:07:13;;;;;;;2.00;1.70;;;19.50;41.70;;;;;;5058912;28;20166;-88
2022/04/26 13:09:39;;;;;;;1.65;1.42;;;19.50;41.70;;;;;;5049764;28;20202;-86
2022/04/26 13:12:05;;;;;;;2.22;1.85;;;19.50;42.00;;;;;;5035937;28;20165;-87
2022/04/26 13:14:31;;;;;;;4.72;1.70;;;19.50;41.70;;;;;;5027811;28;20179;-87
2022/04/26 13:16:58;;;;;;;6.38;1.73;;;19.50;42.30;;;;;;5031116;28;20228;-87
2022/04/26 13:19:23;;;;;;;5.63;1.80;;;19.50;41.20;;;;;;5035426;28;20179;-87
2022/04/26 13:21:49;;;;;;;4.65;1.90;;;19.50;42.00;;;;;;5064046;28;20166;-87
2022/04/26 13:24:16;;;;;;;11.00;1.98;;;19.50;41.80;;;;;;5052224;28;20301;-87
2022/04/26 13:26:44;;;;;;;4.90;2.00;;;19.50;41.30;;;;;;5057454;28;20169;-87
2022/04/26 13:29:10;;;;;;;4.65;1.95;;;19.50;41.00;;;;;;5041018;28;20252;-88
2022/04/26 13:31:35;;;;;;;5.05;1.90;;;19.50;41.40;;;;;;5048069;28;20198;-88
2022/04/26 13:34:02;;;;;;;6.57;2.08;;;19.50;41.30;;;;;;5042251;28;20217;-86
2022/04/26 13:36:27;;;;;;;9.02;1.90;;;19.50;41.60;;;;;;5031987;28;20222;-89
2022/04/26 13:38:55;;;;;;;6.65;2.10;;;19.50;42.10;;;;;;5040888;28;20181;-86
2022/04/26 13:41:21;;;;;;;8.38;2.00;;;19.50;42.30;;;;;;5040851;28;20219;-88
2022/04/26 13:43:46;;;;;;;9.77;2.35;;;19.50;42.20;;;;;;5039247;28;20154;-86
2022/04/26 13:46:12;;;;;;;10.60;2.60;;;19.40;41.90;;;;;;5062125;28;20234;-88
2022/04/26 13:48:38;;;;;;;11.00;2.10;;;19.50;42.20;;;;;;5023134;28;20633;-88
2022/04/26 13:51:03;;;;;;;11.05;2.20;;;19.50;42.20;;;;;;5035381;28;20183;-88
2022/04/26 13:53:33;;;;;;;5.60;1.70;;;19.50;42.50;;;;;;5056070;28;20197;-89
2022/04/26 13:56:00;;;;;;;7.75;2.45;;;19.50;42.10;;;;;;5037380;28;20190;-91
2022/04/26 13:58:26;;;;;;;7.20;2.00;;;19.50;41.60;;;;;;5036069;28;20232;-87
2022/04/26 14:00:54;;;;;;;8.88;2.13;;;19.50;41.60;;;;;;5030363;28;20181;-88
2022/04/26 14:03:20;;;;;;;5.38;2.15;;;19.60;41.80;;;;;;5047381;28;20265;-90
2022/04/26 14:05:46;;;;;;;2.55;1.85;;;19.60;41.40;;;;;;5054316;28;20200;-87
2022/04/26 14:08:12;;;;;;;7.97;1.83;;;19.60;41.90;;;;;;5054613;28;20504;-88
2022/04/26 14:10:39;;;;;;;4.22;1.88;;;19.60;41.50;;;;;;5053506;28;20162;-87
2022/04/26 14:13:05;;;;;;;5.93;2.25;;;19.60;41.30;;;;;;5054235;28;20150;-87
2022/04/26 14:23:36;;;;;;;4.57;1.80;;;19.60;41.50;;;;;;5055234;28;20604;-87
2022/04/26 14:26:46;;;;;;;3.80;1.70;;;19.60;42.20;;;;;;5056254;28;20511;-89
2022/04/26 14:29:12;;;;;;;4.00;1.92;;;19.60;41.20;;;;;;5001933;28;20186;-88
2022/04/26 14:31:51;;;;;;;5.30;1.80;;;19.60;41.10;;;;;;5010070;28;20174;-89
2022/04/26 14:34:17;;;;;;;6.13;1.90;;;19.60;41.00;;;;;;5003427;28;20245;-90
2022/04/26 14:36:42;;;;;;;7.03;2.10;;;19.60;40.90;;;;;;5016191;28;20222;-88
2022/04/26 14:39:18;;;;;;;4.35;1.85;;;19.70;41.60;;;;;;5000761;28;20187;-88
2022/04/26 14:41:49;;;;;;;3.90;1.70;;;19.70;41.70;;;;;;5018616;28;20205;-88
2022/04/26 14:44:15;;;;;;;5.53;1.90;;;19.70;40.80;;;;;;4988075;28;20637;-88
2022/04/26 14:46:45;;;;;;;6.50;1.75;;;19.70;40.70;;;;;;5003440;28;20217;-88
2022/04/26 14:49:20;;;;;;;5.97;1.90;;;19.70;40.90;;;;;;5024243;28;20189;-90
2022/04/26 14:51:48;;;;;;;3.40;1.98;;;19.80;41.40;;;;;;4987021;28;20233;-89
2022/04/26 14:54:18;;;;;;;4.53;1.90;;;19.60;41.40;;;;;;5003315;28;20210;-88
2022/04/26 14:56:55;;;;;;;3.70;1.88;;;19.70;41.10;;;;;;4988752;28;20226;-90
2022/04/26 14:59:28;;;;;;;3.30;1.67;;;19.70;40.80;;;;;;5002759;28;20188;-88
2022/04/26 15:01:56;;;;;;;3.30;1.90;;;19.60;40.90;;;;;;4992122;28;20175;-88
2022/04/26 15:04:30;;;;;;;5.70;2.08;;;19.60;40.70;;;;;;5020871;28;20159;-89
2022/04/26 15:07:15;;;;;;;;;;;;;;;;;;;;;
2022/04/26 15:09:52;;;;;;;3.20;1.90;;;19.60;41.90;;;;;;5010566;28;20198;-89
2022/04/26 15:18:25;;;;;;;8.18;2.03;;;19.60;40.50;;;;;;4977535;28;20673;-90
2022/04/26 15:20:52;;;;;;;5.97;2.10;;;19.70;42.30;;;;;;4947391;29;20192;-88
2022/04/26 15:23:29;;;;;;;5.45;2.05;;;19.70;42.20;;;;;;4933926;29;20209;-88
2022/04/26 15:26:13;;;;;;;4.40;1.92;;;19.70;42.70;;;;;;4930855;29;20279;-90
2022/04/26 15:28:39;;;;;;;9.88;1.95;;;19.70;41.60;;;;;;4963509;29;20271;-88
2022/04/26 15:31:06;;;;;;;5.28;1.85;;;19.60;40.90;;;;;;4939656;29;20170;-88
2022/04/26 15:33:38;;;;;;;6.55;2.00;;;19.70;40.60;;;;;;4939450;28;20330;-88
2022/04/26 15:36:13;;;;;;;6.20;1.90;;;19.70;40.80;;;;;;4970149;28;20172;-87
2022/04/26 15:38:42;;;;;;;8.75;2.03;;;19.70;40.60;;;;;;5003397;28;20263;-86
2022/04/26 15:41:08;;;;;;;6.05;1.95;;;19.80;42.10;;;;;;4991663;28;20300;-87
2022/04/26 15:43:44;;;;;;;5.82;1.83;;;19.70;41.40;;;;;;5022051;28;20579;-85
2022/04/26 15:46:56;;;;;;;10.32;2.00;;;19.70;42.10;;;;;;5025199;28;20162;-88
2022/04/26 15:49:04;;;;;;;10.40;2.30;;;19.70;41.60;;;;;;5036469;28;20247;-86
2022/04/26 15:51:34;;;;;;;8.45;2.33;;;19.70;42.20;;;;;;5025541;28;20222;-86
2022/04/26 15:54:41;;;;;;;10.10;1.85;;;19.70;42.60;;;;;;5026226;28;20170;-87
2022/04/26 15:57:41;;;;;;;14.95;2.03;;;19.70;42.20;;;;;;4954452;28;20228;-88
2022/04/26 16:23:29;;;;;;;7.72;1.98;;;19.70;42.50;;;;;;4919910;29;20192;-88
2022/04/26 16:26:23;;;;;;;;;;;;;;;;;;;;;
2022/04/26 16:29:01;;;;;;;;;;;;;;;;;;;;;
2022/04/26 16:31:55;;;;;;;5.80;2.10;;;19.70;41.90;;;;;;4889141;29;20266;-88
2022/04/26 16:34:27;;;;;;;3.22;1.63;;;19.70;42.60;;;;;;4939809;29;20220;-88
2022/04/26 16:37:05;;;;;;;4.57;2.00;;;19.70;41.80;;;;;;4943550;28;20209;-89
2022/04/26 16:39:40;;;;;;;;;;;;;;;;;;;;;
2022/04/26 16:45:13;;;;;;;5.90;1.80;;;19.70;42.50;;;;;;4951294;29;20178;-89
2022/04/26 16:48:22;;;;;;;3.78;1.60;;;19.80;42.80;;;;;;4923362;29;20217;-88
2022/04/26 16:50:57;;;;;;;8.63;2.03;;;19.70;41.60;;;;;;4936557;29;20186;-87
2022/04/26 16:53:44;;;;;;;8.25;2.03;;;19.70;42.30;;;;;;4923028;29;20292;-88
2022/04/26 16:56:10;;;;;;;6.97;2.28;;;19.80;42.70;;;;;;4884195;29;20615;-87
2022/04/26 16:58:49;;;;;;;6.93;1.98;;;19.70;41.50;;;;;;4892607;29;20694;-89
2022/04/26 17:01:15;;;;;;;10.95;2.20;;;19.70;41.70;;;;;;4875846;29;20239;-88
2022/04/26 17:03:48;;;;;;;10.93;2.35;;;19.70;42.30;;;;;;4884150;29;20187;-89
2022/04/26 17:06:15;;;;;;;6.97;1.85;;;19.70;43.30;;;;;;4882624;29;20323;-89
2022/04/26 17:08:58;;;;;;;10.05;2.22;;;19.70;42.80;;;;;;4923561;29;20213;-87
2022/04/26 17:14:09;;;;;;;6.97;1.80;;;19.70;43.30;;;;;;4914399;29;20274;-87
2022/04/26 17:16:39;;;;;;;8.18;1.92;;;19.80;42.90;;;;;;4887581;29;20208;-87
2022/04/26 17:19:05;;;;;;;8.48;1.95;;;19.70;42.30;;;;;;4901520;29;20197;-88
2022/04/26 17:21:32;;;;;;;5.65;1.80;;;19.70;42.90;;;;;;4900055;29;20211;-88
2022/04/26 17:24:01;;;;;;;6.07;1.80;;;19.80;42.30;;;;;;4896604;29;20204;-87
2022/04/26 17:26:28;;;;;;;7.25;1.90;;;19.70;42.00;;;;;;4895707;29;20192;-88
2022/04/26 17:28:55;;;;;;;7.53;1.90;;;19.70;42.90;;;;;;4972109;28;20717;-88
2022/04/26 17:31:24;;;;;;;4.93;2.00;;;19.70;42.90;;;;;;4964180;28;20259;-87
2022/04/26 17:33:54;;;;;;;5.35;1.83;;;19.70;42.50;;;;;;4966281;28;20698;-86
2022/04/26 17:36:21;;;;;;;4.65;1.95;;;19.70;42.90;;;;;;4997423;28;20198;-86
2022/04/26 17:38:48;;;;;;;6.55;1.55;;;19.70;43.30;;;;;;4998908;28;20199;-85
2022/04/26 17:41:18;;;;;;;7.25;1.73;;;19.70;41.50;;;;;;4972708;28;20603;-87
2022/04/26 17:43:47;;;;;;;4.00;1.70;;;19.70;41.50;;;;;;4984926;28;20242;-88
2022/04/26 17:46:17;;;;;;;6.93;1.98;;;19.70;42.20;;;;;;5006662;28;20261;-89
2022/04/26 17:48:49;;;;;;;5.75;1.80;;;19.70;42.30;;;;;;5007903;28;20216;-87
2022/04/26 17:51:14;;;;;;;6.68;2.00;;;19.70;42.00;;;;;;5024952;28;20177;-87
2022/04/26 17:56:29;;;;;;;5.38;1.90;;;19.70;43.00;;;;;;5044017;28;20255;-88